sensor_id;sensor_type;location;lat;lon;timestamp;P1;durP1;ratioP1;P2;durP2;ratioP2
33954;SDS011;20233;50.804;7.126;2022-07-22T00:00:06;17.90;;;11.23;;
33954;SDS011;20233;50.804;7.126;2022-07-22T00:02:33;20.77;;;11.45;;
33954;SDS011;20233;50.804;7.126;2022-07-22T00:04:59;16.48;;;11.75;;
33954;SDS011;20233;50.804;7.126;2022-07-22T00:07:25;18.45;;;11.70;;
33954;SDS011;20233;50.804;7.126;2022-07-22T00:09:50;16.75;;;11.13;;
33954;SDS011;20233;50.804;7.126;2022-07-22T00:12:16;16.48;;;11.52;;
33954;SDS011;20233;50.804;7.126;2022-07-22T00:14:41;16.55;;;11.63;;
33954;SDS011;20233;50.804;7.126;2022-07-22T00:17:07;16.38;;;9.88;;
33954;SDS011;20233;50.804;7.126;2022-07-22T00:19:33;13.43;;;10.93;;
33954;SDS011;20233;50.804;7.126;2022-07-22T00:21:59;17.17;;;10.57;;
33954;SDS011;20233;50.804;7.126;2022-07-22T00:24:24;19.52;;;12.07;;
33954;SDS011;20233;50.804;7.126;2022-07-22T00:26:50;17.80;;;11.80;;
33954;SDS011;20233;50.804;7.126;2022-07-22T00:29:15;17.52;;;11.90;;
33954;SDS011;20233;50.804;7.126;2022-07-22T00:31:41;19.73;;;12.05;;
33954;SDS011;20233;50.804;7.126;2022-07-22T00:34:06;22.25;;;12.75;;
33954;SDS011;20233;50.804;7.126;2022-07-22T00:36:32;20.48;;;11.57;;
33954;SDS011;20233;50.804;7.126;2022-07-22T00:38:58;20.27;;;12.00;;
33954;SDS011;20233;50.804;7.126;2022-07-22T00:41:23;15.18;;;11.15;;
33954;SDS011;20233;50.804;7.126;2022-07-22T00:44:07;20.13;;;13.35;;
33954;SDS011;20233;50.804;7.126;2022-07-22T00:46:34;22.75;;;13.57;;
33954;SDS011;20233;50.804;7.126;2022-07-22T00:49:01;21.33;;;13.57;;
33954;SDS011;20233;50.804;7.126;2022-07-22T00:51:29;19.80;;;13.20;;
33954;SDS011;20233;50.804;7.126;2022-07-22T00:53:56;24.42;;;14.63;;
33954;SDS011;20233;50.804;7.126;2022-07-22T00:56:23;20.20;;;13.65;;
33954;SDS011;20233;50.804;7.126;2022-07-22T00:58:50;24.55;;;14.35;;
33954;SDS011;20233;50.804;7.126;2022-07-22T01:01:17;27.23;;;15.82;;
33954;SDS011;20233;50.804;7.126;2022-07-22T01:03:43;22.23;;;14.57;;
33954;SDS011;20233;50.804;7.126;2022-07-22T01:06:09;25.63;;;14.10;;
33954;SDS011;20233;50.804;7.126;2022-07-22T01:08:35;23.52;;;14.52;;
33954;SDS011;20233;50.804;7.126;2022-07-22T01:11:05;22.35;;;14.88;;
33954;SDS011;20233;50.804;7.126;2022-07-22T01:13:35;20.27;;;13.50;;
33954;SDS011;20233;50.804;7.126;2022-07-22T01:16:01;27.60;;;14.65;;
33954;SDS011;20233;50.804;7.126;2022-07-22T01:18:28;22.23;;;12.57;;
33954;SDS011;20233;50.804;7.126;2022-07-22T01:20:54;18.83;;;12.15;;
33954;SDS011;20233;50.804;7.126;2022-07-22T01:23:19;19.75;;;11.65;;
33954;SDS011;20233;50.804;7.126;2022-07-22T01:25:45;18.95;;;10.70;;
33954;SDS011;20233;50.804;7.126;2022-07-22T01:28:11;16.88;;;9.98;;
33954;SDS011;20233;50.804;7.126;2022-07-22T01:30:36;16.00;;;9.05;;
33954;SDS011;20233;50.804;7.126;2022-07-22T01:33:02;14.30;;;8.50;;
33954;SDS011;20233;50.804;7.126;2022-07-22T01:35:27;15.95;;;8.07;;
33954;SDS011;20233;50.804;7.126;2022-07-22T01:37:53;15.05;;;7.60;;
33954;SDS011;20233;50.804;7.126;2022-07-22T01:40:19;12.90;;;8.18;;
33954;SDS011;20233;50.804;7.126;2022-07-22T01:42:44;11.00;;;7.45;;
33954;SDS011;20233;50.804;7.126;2022-07-22T01:45:10;11.50;;;6.70;;
33954;SDS011;20233;50.804;7.126;2022-07-22T01:47:35;14.88;;;7.70;;
33954;SDS011;20233;50.804;7.126;2022-07-22T01:50:01;11.38;;;7.05;;
33954;SDS011;20233;50.804;7.126;2022-07-22T01:52:28;9.02;;;5.82;;
33954;SDS011;20233;50.804;7.126;2022-07-22T01:54:54;13.43;;;6.70;;
33954;SDS011;20233;50.804;7.126;2022-07-22T01:57:19;13.63;;;6.40;;
33954;SDS011;20233;50.804;7.126;2022-07-22T01:59:45;11.20;;;6.82;;
33954;SDS011;20233;50.804;7.126;2022-07-22T02:02:10;14.75;;;5.93;;
33954;SDS011;20233;50.804;7.126;2022-07-22T02:04:36;10.02;;;5.90;;
33954;SDS011;20233;50.804;7.126;2022-07-22T02:07:02;12.73;;;5.00;;
33954;SDS011;20233;50.804;7.126;2022-07-22T02:09:28;10.25;;;5.68;;
33954;SDS011;20233;50.804;7.126;2022-07-22T02:11:54;11.35;;;5.30;;
33954;SDS011;20233;50.804;7.126;2022-07-22T02:14:19;11.10;;;4.72;;
33954;SDS011;20233;50.804;7.126;2022-07-22T02:16:45;13.90;;;5.97;;
33954;SDS011;20233;50.804;7.126;2022-07-22T02:19:10;10.07;;;4.90;;
33954;SDS011;20233;50.804;7.126;2022-07-22T02:21:36;9.55;;;4.55;;
33954;SDS011;20233;50.804;7.126;2022-07-22T02:24:02;11.82;;;5.63;;
33954;SDS011;20233;50.804;7.126;2022-07-22T02:26:28;10.27;;;5.68;;
33954;SDS011;20233;50.804;7.126;2022-07-22T02:28:54;11.43;;;5.40;;
33954;SDS011;20233;50.804;7.126;2022-07-22T02:31:20;15.40;;;6.05;;
33954;SDS011;20233;50.804;7.126;2022-07-22T02:33:46;11.32;;;5.57;;
33954;SDS011;20233;50.804;7.126;2022-07-22T02:36:12;12.85;;;5.25;;
33954;SDS011;20233;50.804;7.126;2022-07-22T02:38:38;11.10;;;6.07;;
33954;SDS011;20233;50.804;7.126;2022-07-22T02:41:04;13.60;;;7.43;;
33954;SDS011;20233;50.804;7.126;2022-07-22T02:43:29;16.17;;;6.40;;
33954;SDS011;20233;50.804;7.126;2022-07-22T02:45:55;13.63;;;6.93;;
33954;SDS011;20233;50.804;7.126;2022-07-22T02:48:21;14.45;;;6.13;;
33954;SDS011;20233;50.804;7.126;2022-07-22T02:50:47;10.98;;;5.93;;
33954;SDS011;20233;50.804;7.126;2022-07-22T02:53:13;14.35;;;6.70;;
33954;SDS011;20233;50.804;7.126;2022-07-22T02:55:39;11.57;;;6.50;;
33954;SDS011;20233;50.804;7.126;2022-07-22T02:58:05;14.48;;;7.28;;
33954;SDS011;20233;50.804;7.126;2022-07-22T03:00:32;13.18;;;7.63;;
33954;SDS011;20233;50.804;7.126;2022-07-22T03:02:58;11.00;;;6.90;;
33954;SDS011;20233;50.804;7.126;2022-07-22T03:05:24;15.20;;;7.00;;
33954;SDS011;20233;50.804;7.126;2022-07-22T03:07:49;15.20;;;7.57;;
33954;SDS011;20233;50.804;7.126;2022-07-22T03:10:15;17.60;;;7.95;;
33954;SDS011;20233;50.804;7.126;2022-07-22T03:12:41;14.50;;;9.02;;
33954;SDS011;20233;50.804;7.126;2022-07-22T03:15:06;14.43;;;8.35;;
33954;SDS011;20233;50.804;7.126;2022-07-22T03:17:33;16.92;;;8.63;;
33954;SDS011;20233;50.804;7.126;2022-07-22T03:20:00;15.38;;;8.75;;
33954;SDS011;20233;50.804;7.126;2022-07-22T03:22:30;22.27;;;9.10;;
33954;SDS011;20233;50.804;7.126;2022-07-22T03:24:55;15.27;;;9.95;;
33954;SDS011;20233;50.804;7.126;2022-07-22T03:27:21;16.50;;;9.55;;
33954;SDS011;20233;50.804;7.126;2022-07-22T03:29:46;16.50;;;10.20;;
33954;SDS011;20233;50.804;7.126;2022-07-22T03:32:12;18.83;;;11.13;;
33954;SDS011;20233;50.804;7.126;2022-07-22T03:34:38;18.85;;;10.68;;
33954;SDS011;20233;50.804;7.126;2022-07-22T03:37:03;13.85;;;10.10;;
33954;SDS011;20233;50.804;7.126;2022-07-22T03:39:29;15.27;;;9.82;;
33954;SDS011;20233;50.804;7.126;2022-07-22T03:41:55;18.60;;;10.38;;
33954;SDS011;20233;50.804;7.126;2022-07-22T03:44:20;17.35;;;10.23;;
33954;SDS011;20233;50.804;7.126;2022-07-22T03:46:46;16.10;;;9.75;;
33954;SDS011;20233;50.804;7.126;2022-07-22T03:49:11;16.55;;;10.77;;
33954;SDS011;20233;50.804;7.126;2022-07-22T03:51:37;17.15;;;10.57;;
33954;SDS011;20233;50.804;7.126;2022-07-22T03:54:02;16.83;;;10.85;;
33954;SDS011;20233;50.804;7.126;2022-07-22T03:56:28;17.10;;;9.50;;
33954;SDS011;20233;50.804;7.126;2022-07-22T03:58:53;15.77;;;10.32;;
33954;SDS011;20233;50.804;7.126;2022-07-22T04:01:19;18.38;;;10.35;;
33954;SDS011;20233;50.804;7.126;2022-07-22T04:03:45;15.88;;;10.63;;
33954;SDS011;20233;50.804;7.126;2022-07-22T04:06:10;15.73;;;9.90;;
33954;SDS011;20233;50.804;7.126;2022-07-22T04:08:36;16.95;;;10.25;;
33954;SDS011;20233;50.804;7.126;2022-07-22T04:11:01;16.27;;;11.02;;
33954;SDS011;20233;50.804;7.126;2022-07-22T04:13:27;18.73;;;10.90;;
33954;SDS011;20233;50.804;7.126;2022-07-22T04:15:53;13.98;;;10.93;;
33954;SDS011;20233;50.804;7.126;2022-07-22T04:18:18;17.20;;;9.68;;
33954;SDS011;20233;50.804;7.126;2022-07-22T04:20:44;16.92;;;11.25;;
33954;SDS011;20233;50.804;7.126;2022-07-22T04:23:09;15.18;;;9.45;;
33954;SDS011;20233;50.804;7.126;2022-07-22T04:25:35;19.30;;;10.05;;
33954;SDS011;20233;50.804;7.126;2022-07-22T04:28:00;14.45;;;10.60;;
33954;SDS011;20233;50.804;7.126;2022-07-22T04:30:26;18.15;;;10.32;;
33954;SDS011;20233;50.804;7.126;2022-07-22T04:32:52;15.65;;;10.48;;
33954;SDS011;20233;50.804;7.126;2022-07-22T04:35:17;17.02;;;9.48;;
33954;SDS011;20233;50.804;7.126;2022-07-22T04:37:43;17.17;;;9.85;;
33954;SDS011;20233;50.804;7.126;2022-07-22T04:40:09;13.63;;;9.23;;
33954;SDS011;20233;50.804;7.126;2022-07-22T04:42:35;20.58;;;9.80;;
33954;SDS011;20233;50.804;7.126;2022-07-22T04:45:00;18.05;;;9.80;;
33954;SDS011;20233;50.804;7.126;2022-07-22T04:47:26;14.73;;;10.40;;
33954;SDS011;20233;50.804;7.126;2022-07-22T04:49:52;16.48;;;9.52;;
33954;SDS011;20233;50.804;7.126;2022-07-22T04:52:18;17.00;;;9.98;;
33954;SDS011;20233;50.804;7.126;2022-07-22T04:54:43;24.15;;;9.75;;
33954;SDS011;20233;50.804;7.126;2022-07-22T04:57:09;15.50;;;10.23;;
33954;SDS011;20233;50.804;7.126;2022-07-22T04:59:35;14.00;;;8.85;;
33954;SDS011;20233;50.804;7.126;2022-07-22T05:02:01;19.60;;;9.93;;
33954;SDS011;20233;50.804;7.126;2022-07-22T05:04:28;18.25;;;9.88;;
33954;SDS011;20233;50.804;7.126;2022-07-22T05:06:54;15.20;;;9.75;;
33954;SDS011;20233;50.804;7.126;2022-07-22T05:09:20;13.32;;;8.90;;
33954;SDS011;20233;50.804;7.126;2022-07-22T05:11:45;19.98;;;9.82;;
33954;SDS011;20233;50.804;7.126;2022-07-22T05:14:11;17.48;;;9.32;;
33954;SDS011;20233;50.804;7.126;2022-07-22T05:16:37;15.98;;;9.07;;
33954;SDS011;20233;50.804;7.126;2022-07-22T05:19:03;14.52;;;9.15;;
33954;SDS011;20233;50.804;7.126;2022-07-22T05:21:30;11.52;;;8.60;;
33954;SDS011;20233;50.804;7.126;2022-07-22T05:23:56;11.30;;;7.93;;
33954;SDS011;20233;50.804;7.126;2022-07-22T05:26:21;16.17;;;9.48;;
33954;SDS011;20233;50.804;7.126;2022-07-22T05:28:47;15.23;;;8.77;;
33954;SDS011;20233;50.804;7.126;2022-07-22T05:31:13;16.48;;;9.60;;
33954;SDS011;20233;50.804;7.126;2022-07-22T05:33:38;16.98;;;9.02;;
33954;SDS011;20233;50.804;7.126;2022-07-22T05:36:04;17.73;;;8.30;;
33954;SDS011;20233;50.804;7.126;2022-07-22T05:38:33;17.58;;;9.48;;
33954;SDS011;20233;50.804;7.126;2022-07-22T05:40:59;13.68;;;8.82;;
33954;SDS011;20233;50.804;7.126;2022-07-22T05:43:25;16.33;;;8.38;;
33954;SDS011;20233;50.804;7.126;2022-07-22T05:45:50;17.58;;;9.35;;
33954;SDS011;20233;50.804;7.126;2022-07-22T05:48:16;16.65;;;9.45;;
33954;SDS011;20233;50.804;7.126;2022-07-22T05:50:42;13.77;;;8.40;;
33954;SDS011;20233;50.804;7.126;2022-07-22T05:53:07;15.77;;;8.55;;
33954;SDS011;20233;50.804;7.126;2022-07-22T05:55:33;13.98;;;8.88;;
33954;SDS011;20233;50.804;7.126;2022-07-22T05:57:58;14.45;;;8.40;;
33954;SDS011;20233;50.804;7.126;2022-07-22T06:00:24;11.05;;;8.27;;
33954;SDS011;20233;50.804;7.126;2022-07-22T06:02:50;14.05;;;9.27;;
33954;SDS011;20233;50.804;7.126;2022-07-22T06:05:15;12.25;;;8.57;;
33954;SDS011;20233;50.804;7.126;2022-07-22T06:07:41;19.17;;;9.70;;
33954;SDS011;20233;50.804;7.126;2022-07-22T06:10:07;10.57;;;8.35;;
33954;SDS011;20233;50.804;7.126;2022-07-22T06:12:33;15.48;;;8.43;;
33954;SDS011;20233;50.804;7.126;2022-07-22T06:14:58;12.35;;;8.57;;
33954;SDS011;20233;50.804;7.126;2022-07-22T06:17:24;12.80;;;8.55;;
33954;SDS011;20233;50.804;7.126;2022-07-22T06:19:50;14.30;;;9.13;;
33954;SDS011;20233;50.804;7.126;2022-07-22T06:22:15;12.38;;;8.57;;
33954;SDS011;20233;50.804;7.126;2022-07-22T06:24:42;14.85;;;8.20;;
33954;SDS011;20233;50.804;7.126;2022-07-22T06:27:09;11.40;;;8.10;;
33954;SDS011;20233;50.804;7.126;2022-07-22T06:29:35;14.98;;;7.63;;
33954;SDS011;20233;50.804;7.126;2022-07-22T06:32:00;16.80;;;8.32;;
33954;SDS011;20233;50.804;7.126;2022-07-22T06:34:26;15.13;;;8.45;;
33954;SDS011;20233;50.804;7.126;2022-07-22T06:36:52;14.38;;;8.25;;
33954;SDS011;20233;50.804;7.126;2022-07-22T06:39:18;14.05;;;8.57;;
33954;SDS011;20233;50.804;7.126;2022-07-22T06:41:44;13.57;;;9.07;;
33954;SDS011;20233;50.804;7.126;2022-07-22T06:44:10;14.48;;;9.70;;
33954;SDS011;20233;50.804;7.126;2022-07-22T06:46:35;20.35;;;11.48;;
33954;SDS011;20233;50.804;7.126;2022-07-22T06:49:01;18.42;;;9.95;;
33954;SDS011;20233;50.804;7.126;2022-07-22T06:51:27;17.38;;;11.60;;
33954;SDS011;20233;50.804;7.126;2022-07-22T06:53:53;21.23;;;11.68;;
33954;SDS011;20233;50.804;7.126;2022-07-22T06:56:19;20.83;;;12.75;;
33954;SDS011;20233;50.804;7.126;2022-07-22T06:58:44;15.77;;;11.65;;
33954;SDS011;20233;50.804;7.126;2022-07-22T07:01:10;22.73;;;12.35;;
33954;SDS011;20233;50.804;7.126;2022-07-22T07:03:36;20.58;;;12.15;;
33954;SDS011;20233;50.804;7.126;2022-07-22T07:06:01;17.55;;;12.70;;
33954;SDS011;20233;50.804;7.126;2022-07-22T07:08:28;19.92;;;12.40;;
33954;SDS011;20233;50.804;7.126;2022-07-22T07:10:54;16.05;;;11.73;;
33954;SDS011;20233;50.804;7.126;2022-07-22T07:13:20;16.77;;;13.02;;
33954;SDS011;20233;50.804;7.126;2022-07-22T07:15:45;18.13;;;12.10;;
33954;SDS011;20233;50.804;7.126;2022-07-22T07:18:11;19.58;;;11.80;;
33954;SDS011;20233;50.804;7.126;2022-07-22T07:20:37;16.20;;;12.60;;
33954;SDS011;20233;50.804;7.126;2022-07-22T07:23:03;18.70;;;12.73;;
33954;SDS011;20233;50.804;7.126;2022-07-22T07:25:29;18.75;;;13.13;;
33954;SDS011;20233;50.804;7.126;2022-07-22T07:27:55;19.75;;;13.23;;
33954;SDS011;20233;50.804;7.126;2022-07-22T07:30:21;18.38;;;13.52;;
33954;SDS011;20233;50.804;7.126;2022-07-22T07:32:46;17.45;;;11.40;;
33954;SDS011;20233;50.804;7.126;2022-07-22T07:35:12;13.05;;;9.07;;
33954;SDS011;20233;50.804;7.126;2022-07-22T07:37:38;14.48;;;9.60;;
33954;SDS011;20233;50.804;7.126;2022-07-22T07:40:04;12.77;;;10.02;;
33954;SDS011;20233;50.804;7.126;2022-07-22T07:42:30;15.77;;;9.18;;
33954;SDS011;20233;50.804;7.126;2022-07-22T07:44:56;13.63;;;9.43;;
33954;SDS011;20233;50.804;7.126;2022-07-22T07:47:22;13.85;;;9.50;;
33954;SDS011;20233;50.804;7.126;2022-07-22T07:49:48;14.70;;;9.77;;
33954;SDS011;20233;50.804;7.126;2022-07-22T07:52:14;14.95;;;9.70;;
33954;SDS011;20233;50.804;7.126;2022-07-22T07:54:41;16.60;;;8.95;;
33954;SDS011;20233;50.804;7.126;2022-07-22T07:57:07;12.82;;;9.15;;
33954;SDS011;20233;50.804;7.126;2022-07-22T07:59:35;13.45;;;9.98;;
33954;SDS011;20233;50.804;7.126;2022-07-22T08:02:02;13.88;;;9.07;;
33954;SDS011;20233;50.804;7.126;2022-07-22T08:04:27;13.82;;;10.57;;
33954;SDS011;20233;50.804;7.126;2022-07-22T08:06:54;15.48;;;10.07;;
33954;SDS011;20233;50.804;7.126;2022-07-22T08:09:19;12.25;;;10.07;;
33954;SDS011;20233;50.804;7.126;2022-07-22T08:11:45;12.52;;;9.55;;
33954;SDS011;20233;50.804;7.126;2022-07-22T08:14:11;17.48;;;11.05;;
33954;SDS011;20233;50.804;7.126;2022-07-22T08:16:37;13.05;;;10.07;;
33954;SDS011;20233;50.804;7.126;2022-07-22T08:19:03;16.15;;;12.63;;
33954;SDS011;20233;50.804;7.126;2022-07-22T08:21:29;14.85;;;11.43;;
33954;SDS011;20233;50.804;7.126;2022-07-22T08:23:54;13.77;;;10.85;;
33954;SDS011;20233;50.804;7.126;2022-07-22T08:26:20;13.75;;;11.23;;
33954;SDS011;20233;50.804;7.126;2022-07-22T08:28:46;18.63;;;11.82;;
33954;SDS011;20233;50.804;7.126;2022-07-22T08:31:12;18.17;;;11.48;;
33954;SDS011;20233;50.804;7.126;2022-07-22T08:33:37;16.60;;;12.07;;
33954;SDS011;20233;50.804;7.126;2022-07-22T08:36:03;14.35;;;11.05;;
33954;SDS011;20233;50.804;7.126;2022-07-22T08:38:29;15.77;;;12.35;;
33954;SDS011;20233;50.804;7.126;2022-07-22T08:40:55;13.95;;;9.93;;
33954;SDS011;20233;50.804;7.126;2022-07-22T08:43:21;18.00;;;11.93;;
33954;SDS011;20233;50.804;7.126;2022-07-22T08:45:47;15.85;;;11.93;;
33954;SDS011;20233;50.804;7.126;2022-07-22T08:48:14;16.58;;;11.52;;
33954;SDS011;20233;50.804;7.126;2022-07-22T08:50:40;13.88;;;9.63;;
33954;SDS011;20233;50.804;7.126;2022-07-22T08:53:09;19.25;;;10.07;;
33954;SDS011;20233;50.804;7.126;2022-07-22T08:55:44;12.80;;;9.10;;
33954;SDS011;20233;50.804;7.126;2022-07-22T08:58:11;13.07;;;9.13;;
33954;SDS011;20233;50.804;7.126;2022-07-22T09:00:38;12.85;;;8.68;;
33954;SDS011;20233;50.804;7.126;2022-07-22T09:03:23;12.70;;;9.10;;
33954;SDS011;20233;50.804;7.126;2022-07-22T09:05:52;14.75;;;9.75;;
33954;SDS011;20233;50.804;7.126;2022-07-22T09:08:19;18.38;;;10.38;;
33954;SDS011;20233;50.804;7.126;2022-07-22T09:10:46;13.52;;;9.60;;
33954;SDS011;20233;50.804;7.126;2022-07-22T09:13:13;16.27;;;9.75;;
33954;SDS011;20233;50.804;7.126;2022-07-22T09:15:51;14.38;;;9.68;;
33954;SDS011;20233;50.804;7.126;2022-07-22T09:18:18;13.95;;;8.93;;
33954;SDS011;20233;50.804;7.126;2022-07-22T09:20:44;12.32;;;8.52;;
33954;SDS011;20233;50.804;7.126;2022-07-22T09:23:14;11.23;;;8.27;;
33954;SDS011;20233;50.804;7.126;2022-07-22T09:25:42;11.73;;;8.25;;
33954;SDS011;20233;50.804;7.126;2022-07-22T09:28:09;10.63;;;7.90;;
33954;SDS011;20233;50.804;7.126;2022-07-22T09:30:38;11.32;;;8.18;;
33954;SDS011;20233;50.804;7.126;2022-07-22T09:33:05;9.02;;;7.65;;
33954;SDS011;20233;50.804;7.126;2022-07-22T09:35:31;13.73;;;9.52;;
33954;SDS011;20233;50.804;7.126;2022-07-22T09:37:58;9.98;;;7.82;;
33954;SDS011;20233;50.804;7.126;2022-07-22T09:40:26;12.57;;;8.30;;
33954;SDS011;20233;50.804;7.126;2022-07-22T09:42:55;14.27;;;9.05;;
33954;SDS011;20233;50.804;7.126;2022-07-22T09:45:23;12.73;;;8.80;;
33954;SDS011;20233;50.804;7.126;2022-07-22T09:47:53;12.98;;;9.93;;
33954;SDS011;20233;50.804;7.126;2022-07-22T09:52:50;14.48;;;9.65;;
33954;SDS011;20233;50.804;7.126;2022-07-22T09:55:19;14.38;;;10.52;;
33954;SDS011;20233;50.804;7.126;2022-07-22T09:57:46;11.95;;;9.73;;
33954;SDS011;20233;50.804;7.126;2022-07-22T10:00:13;16.30;;;10.13;;
33954;SDS011;20233;50.804;7.126;2022-07-22T10:03:02;14.73;;;10.35;;
33954;SDS011;20233;50.804;7.126;2022-07-22T10:05:29;15.63;;;10.95;;
33954;SDS011;20233;50.804;7.126;2022-07-22T10:07:57;14.27;;;11.55;;
33954;SDS011;20233;50.804;7.126;2022-07-22T10:10:25;18.40;;;12.70;;
33954;SDS011;20233;50.804;7.126;2022-07-22T10:12:53;16.13;;;10.23;;
33954;SDS011;20233;50.804;7.126;2022-07-22T10:15:20;15.85;;;10.48;;
33954;SDS011;20233;50.804;7.126;2022-07-22T10:17:47;14.80;;;10.63;;
33954;SDS011;20233;50.804;7.126;2022-07-22T10:20:16;14.88;;;11.88;;
33954;SDS011;20233;50.804;7.126;2022-07-22T10:22:47;16.15;;;12.75;;
33954;SDS011;20233;50.804;7.126;2022-07-22T10:25:14;15.15;;;12.27;;
33954;SDS011;20233;50.804;7.126;2022-07-22T10:30:10;17.55;;;14.48;;
33954;SDS011;20233;50.804;7.126;2022-07-22T10:32:37;18.40;;;14.60;;
33954;SDS011;20233;50.804;7.126;2022-07-22T10:45:24;18.60;;;14.75;;
33954;SDS011;20233;50.804;7.126;2022-07-22T10:47:54;19.77;;;14.60;;
33954;SDS011;20233;50.804;7.126;2022-07-22T10:53:09;14.15;;;11.95;;
33954;SDS011;20233;50.804;7.126;2022-07-22T10:55:38;15.77;;;13.55;;
33954;SDS011;20233;50.804;7.126;2022-07-22T11:00:59;14.43;;;11.88;;
33954;SDS011;20233;50.804;7.126;2022-07-22T11:03:27;15.20;;;12.65;;
33954;SDS011;20233;50.804;7.126;2022-07-22T11:05:54;14.35;;;12.05;;
33954;SDS011;20233;50.804;7.126;2022-07-22T11:08:21;12.07;;;10.27;;
33954;SDS011;20233;50.804;7.126;2022-07-22T11:10:48;12.30;;;9.90;;
33954;SDS011;20233;50.804;7.126;2022-07-22T11:13:34;13.50;;;10.55;;
33954;SDS011;20233;50.804;7.126;2022-07-22T11:16:17;13.63;;;10.48;;
33954;SDS011;20233;50.804;7.126;2022-07-22T11:21:22;12.98;;;8.68;;
33954;SDS011;20233;50.804;7.126;2022-07-22T11:23:50;11.52;;;7.95;;
33954;SDS011;20233;50.804;7.126;2022-07-22T11:26:17;9.55;;;6.97;;
33954;SDS011;20233;50.804;7.126;2022-07-22T11:28:46;9.70;;;6.88;;
33954;SDS011;20233;50.804;7.126;2022-07-22T11:31:15;9.52;;;7.38;;
33954;SDS011;20233;50.804;7.126;2022-07-22T11:33:43;11.82;;;9.65;;
33954;SDS011;20233;50.804;7.126;2022-07-22T11:36:12;10.95;;;8.32;;
33954;SDS011;20233;50.804;7.126;2022-07-22T11:41:14;8.52;;;6.82;;
33954;SDS011;20233;50.804;7.126;2022-07-22T11:43:42;8.73;;;7.20;;
33954;SDS011;20233;50.804;7.126;2022-07-22T11:46:17;11.18;;;8.05;;
33954;SDS011;20233;50.804;7.126;2022-07-22T11:48:43;9.60;;;7.07;;
33954;SDS011;20233;50.804;7.126;2022-07-22T11:51:10;10.80;;;7.63;;
33954;SDS011;20233;50.804;7.126;2022-07-22T11:53:37;10.40;;;8.73;;
33954;SDS011;20233;50.804;7.126;2022-07-22T11:56:05;9.38;;;7.50;;
33954;SDS011;20233;50.804;7.126;2022-07-22T12:01:05;9.32;;;8.27;;
33954;SDS011;20233;50.804;7.126;2022-07-22T12:03:33;8.57;;;6.80;;
33954;SDS011;20233;50.804;7.126;2022-07-22T12:05:59;9.60;;;8.00;;
33954;SDS011;20233;50.804;7.126;2022-07-22T12:08:26;8.20;;;7.20;;
33954;SDS011;20233;50.804;7.126;2022-07-22T12:10:52;8.98;;;7.57;;
33954;SDS011;20233;50.804;7.126;2022-07-22T12:13:19;8.52;;;7.22;;
33954;SDS011;20233;50.804;7.126;2022-07-22T12:15:45;11.20;;;7.75;;
33954;SDS011;20233;50.804;7.126;2022-07-22T12:18:21;9.20;;;7.78;;
33954;SDS011;20233;50.804;7.126;2022-07-22T12:20:49;9.25;;;7.32;;
33954;SDS011;20233;50.804;7.126;2022-07-22T12:23:15;8.65;;;7.72;;
33954;SDS011;20233;50.804;7.126;2022-07-22T12:25:58;9.40;;;8.40;;
33954;SDS011;20233;50.804;7.126;2022-07-22T12:28:25;9.15;;;7.22;;
33954;SDS011;20233;50.804;7.126;2022-07-22T12:30:53;9.02;;;8.13;;
33954;SDS011;20233;50.804;7.126;2022-07-22T12:33:20;9.68;;;8.63;;
33954;SDS011;20233;50.804;7.126;2022-07-22T12:36:06;9.23;;;8.23;;
33954;SDS011;20233;50.804;7.126;2022-07-22T12:38:32;9.98;;;7.85;;
33954;SDS011;20233;50.804;7.126;2022-07-22T12:44:05;9.27;;;7.75;;
33954;SDS011;20233;50.804;7.126;2022-07-22T12:46:31;11.73;;;8.35;;
33954;SDS011;20233;50.804;7.126;2022-07-22T12:48:56;10.23;;;8.20;;
33954;SDS011;20233;50.804;7.126;2022-07-22T12:51:25;10.80;;;8.18;;
33954;SDS011;20233;50.804;7.126;2022-07-22T12:53:50;10.20;;;8.57;;
33954;SDS011;20233;50.804;7.126;2022-07-22T12:56:16;9.82;;;8.45;;
33954;SDS011;20233;50.804;7.126;2022-07-22T12:58:45;11.25;;;8.05;;
33954;SDS011;20233;50.804;7.126;2022-07-22T13:01:10;10.07;;;8.63;;
33954;SDS011;20233;50.804;7.126;2022-07-22T13:03:36;9.00;;;7.75;;
33954;SDS011;20233;50.804;7.126;2022-07-22T13:06:03;8.93;;;8.02;;
33954;SDS011;20233;50.804;7.126;2022-07-22T13:08:30;8.52;;;7.50;;
33954;SDS011;20233;50.804;7.126;2022-07-22T13:10:56;8.15;;;7.32;;
33954;SDS011;20233;50.804;7.126;2022-07-22T13:13:23;10.25;;;7.13;;
33954;SDS011;20233;50.804;7.126;2022-07-22T13:15:49;8.57;;;7.40;;
33954;SDS011;20233;50.804;7.126;2022-07-22T13:18:16;7.93;;;6.82;;
33954;SDS011;20233;50.804;7.126;2022-07-22T13:20:41;8.75;;;7.00;;
33954;SDS011;20233;50.804;7.126;2022-07-22T13:23:07;9.55;;;6.95;;
33954;SDS011;20233;50.804;7.126;2022-07-22T13:25:33;12.48;;;7.28;;
33954;SDS011;20233;50.804;7.126;2022-07-22T13:28:00;9.43;;;6.20;;
33954;SDS011;20233;50.804;7.126;2022-07-22T13:30:26;7.88;;;6.43;;
33954;SDS011;20233;50.804;7.126;2022-07-22T13:32:51;5.30;;;4.68;;
33954;SDS011;20233;50.804;7.126;2022-07-22T13:35:17;6.07;;;5.38;;
33954;SDS011;20233;50.804;7.126;2022-07-22T13:37:43;7.68;;;5.00;;
33954;SDS011;20233;50.804;7.126;2022-07-22T13:40:10;6.00;;;4.72;;
33954;SDS011;20233;50.804;7.126;2022-07-22T13:42:36;7.60;;;5.45;;
33954;SDS011;20233;50.804;7.126;2022-07-22T13:45:02;5.85;;;5.00;;
33954;SDS011;20233;50.804;7.126;2022-07-22T13:47:29;9.15;;;5.35;;
33954;SDS011;20233;50.804;7.126;2022-07-22T13:49:54;7.45;;;4.70;;
33954;SDS011;20233;50.804;7.126;2022-07-22T13:52:21;7.78;;;5.78;;
33954;SDS011;20233;50.804;7.126;2022-07-22T13:54:47;6.43;;;4.90;;
33954;SDS011;20233;50.804;7.126;2022-07-22T13:57:14;8.02;;;5.00;;
33954;SDS011;20233;50.804;7.126;2022-07-22T13:59:40;6.78;;;5.28;;
33954;SDS011;20233;50.804;7.126;2022-07-22T14:02:06;7.28;;;5.05;;
33954;SDS011;20233;50.804;7.126;2022-07-22T14:04:32;8.30;;;5.70;;
33954;SDS011;20233;50.804;7.126;2022-07-22T14:06:58;7.18;;;5.30;;
33954;SDS011;20233;50.804;7.126;2022-07-22T14:09:24;6.05;;;5.38;;
33954;SDS011;20233;50.804;7.126;2022-07-22T14:11:49;7.13;;;5.40;;
33954;SDS011;20233;50.804;7.126;2022-07-22T14:14:15;6.75;;;4.93;;
33954;SDS011;20233;50.804;7.126;2022-07-22T14:16:41;7.95;;;6.75;;
33954;SDS011;20233;50.804;7.126;2022-07-22T14:19:08;8.88;;;6.22;;
33954;SDS011;20233;50.804;7.126;2022-07-22T14:21:41;7.53;;;6.10;;
33954;SDS011;20233;50.804;7.126;2022-07-22T14:24:08;8.63;;;5.82;;
33954;SDS011;20233;50.804;7.126;2022-07-22T14:26:35;7.40;;;6.53;;
33954;SDS011;20233;50.804;7.126;2022-07-22T14:29:01;8.70;;;6.53;;
33954;SDS011;20233;50.804;7.126;2022-07-22T14:31:28;6.93;;;6.00;;
33954;SDS011;20233;50.804;7.126;2022-07-22T14:33:54;7.63;;;5.82;;
33954;SDS011;20233;50.804;7.126;2022-07-22T14:36:20;8.30;;;5.85;;
33954;SDS011;20233;50.804;7.126;2022-07-22T14:38:46;9.07;;;5.90;;
33954;SDS011;20233;50.804;7.126;2022-07-22T14:41:11;7.63;;;5.65;;
33954;SDS011;20233;50.804;7.126;2022-07-22T14:43:37;7.85;;;6.18;;
33954;SDS011;20233;50.804;7.126;2022-07-22T14:46:03;8.02;;;6.55;;
33954;SDS011;20233;50.804;7.126;2022-07-22T14:48:32;8.20;;;6.03;;
33954;SDS011;20233;50.804;7.126;2022-07-22T14:50:58;7.40;;;5.88;;
33954;SDS011;20233;50.804;7.126;2022-07-22T14:53:23;7.28;;;5.78;;
33954;SDS011;20233;50.804;7.126;2022-07-22T14:55:49;6.63;;;5.93;;
33954;SDS011;20233;50.804;7.126;2022-07-22T14:58:15;7.63;;;6.05;;
33954;SDS011;20233;50.804;7.126;2022-07-22T15:00:40;8.80;;;6.47;;